Terminal Aerodrome Forecast
Issued by NWS

Home | Current Version | Previous Version | Graphics & Text | Print | Product List | Glossary On
Versions: 1 2 3 4 5 6 7 8 9 10 11 12 13 14 15 16 17 18 19 20 21 22 23 24 25 26 27 28
000
FTUS43 KGRB 191524 AAB
TAFATW
TAF AMD
KATW 191524Z 1915/2012 24006KT P6SM OVC005
      TEMPO 1915/1917 SCT005 BKN010
     FM191700 26007KT P6SM SCT010 BKN020
     FM191900 25008KT P6SM VCSH SCT025 BKN035
     FM200400 30003KT 3SM BR SCT008 BKN050
     FM200700 00000KT 1SM BR BKN008=

USA.gov is the U.S. government's official web portal to all federal, state and local government web resources and services.